sensor_id;sensor_type;location;lat;lon;timestamp;P1;durP1;ratioP1;P2;durP2;ratioP2
48871;SDS011;36154;51.674;7.824;2023-08-30T00:02:10;4.15;;;2.33;;
48871;SDS011;36154;51.674;7.824;2023-08-30T00:04:35;2.95;;;2.42;;
48871;SDS011;36154;51.674;7.824;2023-08-30T00:07:00;2.10;;;2.00;;
48871;SDS011;36154;51.674;7.824;2023-08-30T00:09:26;2.00;;;1.83;;
48871;SDS011;36154;51.674;7.824;2023-08-30T00:11:51;1.92;;;1.77;;
48871;SDS011;36154;51.674;7.824;2023-08-30T00:14:16;2.20;;;2.10;;
48871;SDS011;36154;51.674;7.824;2023-08-30T00:16:41;2.00;;;1.90;;
48871;SDS011;36154;51.674;7.824;2023-08-30T00:19:07;2.40;;;2.13;;
48871;SDS011;36154;51.674;7.824;2023-08-30T00:21:32;2.30;;;2.20;;
48871;SDS011;36154;51.674;7.824;2023-08-30T00:23:57;2.40;;;2.20;;
48871;SDS011;36154;51.674;7.824;2023-08-30T00:26:23;2.00;;;1.90;;
48871;SDS011;36154;51.674;7.824;2023-08-30T00:28:48;2.72;;;2.10;;
48871;SDS011;36154;51.674;7.824;2023-08-30T00:31:13;4.15;;;2.00;;
48871;SDS011;36154;51.674;7.824;2023-08-30T00:33:39;2.20;;;2.00;;
48871;SDS011;36154;51.674;7.824;2023-08-30T00:36:04;2.60;;;2.47;;
48871;SDS011;36154;51.674;7.824;2023-08-30T00:38:30;2.95;;;2.28;;
48871;SDS011;36154;51.674;7.824;2023-08-30T00:40:58;2.70;;;2.50;;
48871;SDS011;36154;51.674;7.824;2023-08-30T00:43:23;2.10;;;2.00;;
48871;SDS011;36154;51.674;7.824;2023-08-30T00:45:48;2.50;;;2.30;;
48871;SDS011;36154;51.674;7.824;2023-08-30T00:48:14;2.38;;;2.25;;
48871;SDS011;36154;51.674;7.824;2023-08-30T00:50:41;1.85;;;1.75;;
48871;SDS011;36154;51.674;7.824;2023-08-30T00:53:07;2.20;;;2.00;;
48871;SDS011;36154;51.674;7.824;2023-08-30T00:55:34;2.97;;;2.17;;
48871;SDS011;36154;51.674;7.824;2023-08-30T00:58:00;2.13;;;1.92;;
48871;SDS011;36154;51.674;7.824;2023-08-30T01:00:27;3.33;;;2.10;;
48871;SDS011;36154;51.674;7.824;2023-08-30T01:02:54;3.42;;;1.90;;
48871;SDS011;36154;51.674;7.824;2023-08-30T01:05:20;3.13;;;1.98;;
48871;SDS011;36154;51.674;7.824;2023-08-30T01:07:45;2.50;;;2.40;;
48871;SDS011;36154;51.674;7.824;2023-08-30T01:10:10;3.50;;;2.20;;
48871;SDS011;36154;51.674;7.824;2023-08-30T01:15:34;2.17;;;1.98;;
48871;SDS011;36154;51.674;7.824;2023-08-30T01:18:05;2.00;;;1.90;;
48871;SDS011;36154;51.674;7.824;2023-08-30T01:20:32;2.05;;;1.95;;
48871;SDS011;36154;51.674;7.824;2023-08-30T01:25:58;2.85;;;1.90;;
48871;SDS011;36154;51.674;7.824;2023-08-30T01:28:27;2.15;;;1.70;;
48871;SDS011;36154;51.674;7.824;2023-08-30T01:30:55;2.78;;;2.47;;
48871;SDS011;36154;51.674;7.824;2023-08-30T01:33:23;2.05;;;1.95;;
48871;SDS011;36154;51.674;7.824;2023-08-30T01:35:49;2.50;;;2.30;;
48871;SDS011;36154;51.674;7.824;2023-08-30T01:38:15;2.22;;;2.03;;
48871;SDS011;36154;51.674;7.824;2023-08-30T01:40:42;2.65;;;2.42;;
48871;SDS011;36154;51.674;7.824;2023-08-30T01:43:09;2.67;;;2.42;;
48871;SDS011;36154;51.674;7.824;2023-08-30T01:45:36;2.03;;;1.92;;
48871;SDS011;36154;51.674;7.824;2023-08-30T01:48:04;2.58;;;1.85;;
48871;SDS011;36154;51.674;7.824;2023-08-30T01:50:31;3.65;;;2.08;;
48871;SDS011;36154;51.674;7.824;2023-08-30T01:52:58;2.00;;;1.90;;
48871;SDS011;36154;51.674;7.824;2023-08-30T01:55:25;2.83;;;2.30;;
48871;SDS011;36154;51.674;7.824;2023-08-30T01:57:53;4.25;;;2.10;;
48871;SDS011;36154;51.674;7.824;2023-08-30T02:00:18;2.10;;;1.92;;
48871;SDS011;36154;51.674;7.824;2023-08-30T02:02:44;2.40;;;2.20;;
48871;SDS011;36154;51.674;7.824;2023-08-30T02:05:09;1.90;;;1.80;;
48871;SDS011;36154;51.674;7.824;2023-08-30T02:07:39;2.20;;;2.10;;
48871;SDS011;36154;51.674;7.824;2023-08-30T02:10:12;2.40;;;2.30;;
48871;SDS011;36154;51.674;7.824;2023-08-30T02:12:44;2.42;;;2.28;;
48871;SDS011;36154;51.674;7.824;2023-08-30T02:15:12;2.72;;;2.53;;
48871;SDS011;36154;51.674;7.824;2023-08-30T02:17:39;2.28;;;2.00;;
48871;SDS011;36154;51.674;7.824;2023-08-30T02:20:05;2.30;;;2.15;;
48871;SDS011;36154;51.674;7.824;2023-08-30T02:22:34;2.78;;;2.55;;
48871;SDS011;36154;51.674;7.824;2023-08-30T02:24:59;3.65;;;2.05;;
48871;SDS011;36154;51.674;7.824;2023-08-30T02:27:29;2.22;;;2.05;;
48871;SDS011;36154;51.674;7.824;2023-08-30T02:29:55;2.55;;;2.45;;
48871;SDS011;36154;51.674;7.824;2023-08-30T02:32:20;2.28;;;2.17;;
48871;SDS011;36154;51.674;7.824;2023-08-30T02:34:47;3.95;;;2.70;;
48871;SDS011;36154;51.674;7.824;2023-08-30T02:37:14;2.85;;;2.72;;
48871;SDS011;36154;51.674;7.824;2023-08-30T02:39:40;3.33;;;3.03;;
48871;SDS011;36154;51.674;7.824;2023-08-30T02:42:05;3.28;;;3.03;;
48871;SDS011;36154;51.674;7.824;2023-08-30T02:44:30;2.97;;;2.67;;
48871;SDS011;36154;51.674;7.824;2023-08-30T02:46:56;3.15;;;2.67;;
48871;SDS011;36154;51.674;7.824;2023-08-30T02:49:21;2.00;;;1.90;;
48871;SDS011;36154;51.674;7.824;2023-08-30T02:51:46;2.75;;;2.55;;
48871;SDS011;36154;51.674;7.824;2023-08-30T02:54:12;3.10;;;2.50;;
48871;SDS011;36154;51.674;7.824;2023-08-30T02:56:38;4.15;;;2.78;;
48871;SDS011;36154;51.674;7.824;2023-08-30T02:59:04;2.97;;;2.15;;
48871;SDS011;36154;51.674;7.824;2023-08-30T03:01:30;2.92;;;2.20;;
48871;SDS011;36154;51.674;7.824;2023-08-30T03:03:55;2.50;;;2.30;;
48871;SDS011;36154;51.674;7.824;2023-08-30T03:06:20;3.08;;;2.83;;
48871;SDS011;36154;51.674;7.824;2023-08-30T03:08:46;2.65;;;2.40;;
48871;SDS011;36154;51.674;7.824;2023-08-30T03:11:11;2.53;;;2.33;;
48871;SDS011;36154;51.674;7.824;2023-08-30T03:13:38;3.10;;;2.80;;
48871;SDS011;36154;51.674;7.824;2023-08-30T03:16:13;2.65;;;2.45;;
48871;SDS011;36154;51.674;7.824;2023-08-30T03:18:39;2.80;;;2.40;;
48871;SDS011;36154;51.674;7.824;2023-08-30T03:21:05;2.53;;;2.40;;
48871;SDS011;36154;51.674;7.824;2023-08-30T03:23:32;3.53;;;3.05;;
48871;SDS011;36154;51.674;7.824;2023-08-30T03:25:58;2.58;;;2.47;;
48871;SDS011;36154;51.674;7.824;2023-08-30T03:28:24;2.47;;;2.28;;
48871;SDS011;36154;51.674;7.824;2023-08-30T03:30:49;4.07;;;2.42;;
48871;SDS011;36154;51.674;7.824;2023-08-30T03:33:14;2.40;;;2.25;;
48871;SDS011;36154;51.674;7.824;2023-08-30T03:35:40;2.92;;;2.72;;
48871;SDS011;36154;51.674;7.824;2023-08-30T03:38:05;3.70;;;3.22;;
48871;SDS011;36154;51.674;7.824;2023-08-30T03:40:30;3.60;;;3.30;;
48871;SDS011;36154;51.674;7.824;2023-08-30T03:42:56;3.70;;;3.50;;
48871;SDS011;36154;51.674;7.824;2023-08-30T03:45:22;3.13;;;2.92;;
48871;SDS011;36154;51.674;7.824;2023-08-30T03:47:47;3.33;;;2.75;;
48871;SDS011;36154;51.674;7.824;2023-08-30T03:50:12;3.38;;;2.97;;
48871;SDS011;36154;51.674;7.824;2023-08-30T03:52:38;2.60;;;2.40;;
48871;SDS011;36154;51.674;7.824;2023-08-30T03:55:03;2.45;;;2.30;;
48871;SDS011;36154;51.674;7.824;2023-08-30T03:57:29;3.42;;;2.30;;
48871;SDS011;36154;51.674;7.824;2023-08-30T03:59:54;2.40;;;2.20;;
48871;SDS011;36154;51.674;7.824;2023-08-30T04:02:20;2.40;;;2.30;;
48871;SDS011;36154;51.674;7.824;2023-08-30T04:04:48;4.00;;;2.55;;
48871;SDS011;36154;51.674;7.824;2023-08-30T04:07:14;2.63;;;2.42;;
48871;SDS011;36154;51.674;7.824;2023-08-30T04:09:40;2.92;;;2.50;;
48871;SDS011;36154;51.674;7.824;2023-08-30T04:12:05;2.97;;;2.75;;
48871;SDS011;36154;51.674;7.824;2023-08-30T04:14:31;2.78;;;2.58;;
48871;SDS011;36154;51.674;7.824;2023-08-30T04:16:56;2.67;;;2.58;;
48871;SDS011;36154;51.674;7.824;2023-08-30T04:19:22;3.22;;;2.80;;
48871;SDS011;36154;51.674;7.824;2023-08-30T04:21:47;3.05;;;2.80;;
48871;SDS011;36154;51.674;7.824;2023-08-30T04:24:12;4.00;;;3.55;;
48871;SDS011;36154;51.674;7.824;2023-08-30T04:26:40;3.15;;;2.80;;
48871;SDS011;36154;51.674;7.824;2023-08-30T04:29:06;4.13;;;3.03;;
48871;SDS011;36154;51.674;7.824;2023-08-30T04:31:31;2.83;;;2.63;;
48871;SDS011;36154;51.674;7.824;2023-08-30T04:33:56;3.42;;;2.75;;
48871;SDS011;36154;51.674;7.824;2023-08-30T04:36:22;4.10;;;3.40;;
48871;SDS011;36154;51.674;7.824;2023-08-30T04:38:47;3.55;;;3.10;;
48871;SDS011;36154;51.674;7.824;2023-08-30T04:41:13;3.28;;;2.80;;
48871;SDS011;36154;51.674;7.824;2023-08-30T04:43:38;3.40;;;3.10;;
48871;SDS011;36154;51.674;7.824;2023-08-30T04:46:03;4.63;;;3.05;;
48871;SDS011;36154;51.674;7.824;2023-08-30T04:48:29;3.72;;;3.42;;
48871;SDS011;36154;51.674;7.824;2023-08-30T04:50:58;5.97;;;3.47;;
48871;SDS011;36154;51.674;7.824;2023-08-30T04:53:27;5.53;;;3.17;;
48871;SDS011;36154;51.674;7.824;2023-08-30T04:55:53;3.65;;;3.40;;
48871;SDS011;36154;51.674;7.824;2023-08-30T04:58:18;5.45;;;3.25;;
48871;SDS011;36154;51.674;7.824;2023-08-30T05:00:43;4.43;;;3.42;;
48871;SDS011;36154;51.674;7.824;2023-08-30T05:03:09;3.58;;;3.28;;
48871;SDS011;36154;51.674;7.824;2023-08-30T05:05:34;3.92;;;2.92;;
48871;SDS011;36154;51.674;7.824;2023-08-30T05:07:59;3.10;;;2.90;;
48871;SDS011;36154;51.674;7.824;2023-08-30T05:10:25;3.50;;;3.10;;
48871;SDS011;36154;51.674;7.824;2023-08-30T05:12:50;3.60;;;3.13;;
48871;SDS011;36154;51.674;7.824;2023-08-30T05:15:17;3.88;;;3.47;;
48871;SDS011;36154;51.674;7.824;2023-08-30T05:17:43;4.55;;;3.53;;
48871;SDS011;36154;51.674;7.824;2023-08-30T05:20:08;3.45;;;3.25;;
48871;SDS011;36154;51.674;7.824;2023-08-30T05:22:34;3.78;;;3.05;;
48871;SDS011;36154;51.674;7.824;2023-08-30T05:24:59;3.40;;;3.10;;
48871;SDS011;36154;51.674;7.824;2023-08-30T05:27:25;5.88;;;3.42;;
48871;SDS011;36154;51.674;7.824;2023-08-30T05:29:51;3.22;;;2.95;;
48871;SDS011;36154;51.674;7.824;2023-08-30T05:32:16;4.22;;;3.30;;
48871;SDS011;36154;51.674;7.824;2023-08-30T05:34:42;4.05;;;3.13;;
48871;SDS011;36154;51.674;7.824;2023-08-30T05:37:07;4.13;;;3.45;;
48871;SDS011;36154;51.674;7.824;2023-08-30T05:39:33;5.43;;;3.13;;
48871;SDS011;36154;51.674;7.824;2023-08-30T05:41:59;3.53;;;3.22;;
48871;SDS011;36154;51.674;7.824;2023-08-30T05:44:25;3.80;;;3.50;;
48871;SDS011;36154;51.674;7.824;2023-08-30T05:46:50;4.53;;;3.55;;
48871;SDS011;36154;51.674;7.824;2023-08-30T05:49:16;3.92;;;3.60;;
48871;SDS011;36154;51.674;7.824;2023-08-30T05:51:41;6.68;;;3.67;;
48871;SDS011;36154;51.674;7.824;2023-08-30T05:54:07;4.55;;;4.18;;
48871;SDS011;36154;51.674;7.824;2023-08-30T05:56:32;3.90;;;3.60;;
48871;SDS011;36154;51.674;7.824;2023-08-30T05:58:57;4.28;;;3.42;;
48871;SDS011;36154;51.674;7.824;2023-08-30T06:01:23;4.50;;;3.60;;
48871;SDS011;36154;51.674;7.824;2023-08-30T06:03:48;3.33;;;3.03;;
48871;SDS011;36154;51.674;7.824;2023-08-30T06:06:14;4.57;;;3.53;;
48871;SDS011;36154;51.674;7.824;2023-08-30T06:08:40;3.83;;;3.53;;
48871;SDS011;36154;51.674;7.824;2023-08-30T06:11:05;6.20;;;3.50;;
48871;SDS011;36154;51.674;7.824;2023-08-30T06:13:31;6.57;;;3.83;;
48871;SDS011;36154;51.674;7.824;2023-08-30T06:15:56;4.25;;;3.90;;
48871;SDS011;36154;51.674;7.824;2023-08-30T06:18:21;3.80;;;3.50;;
48871;SDS011;36154;51.674;7.824;2023-08-30T06:20:47;4.75;;;3.65;;
48871;SDS011;36154;51.674;7.824;2023-08-30T06:23:13;4.10;;;3.80;;
48871;SDS011;36154;51.674;7.824;2023-08-30T06:25:41;5.97;;;3.58;;
48871;SDS011;36154;51.674;7.824;2023-08-30T06:28:06;3.60;;;3.30;;
48871;SDS011;36154;51.674;7.824;2023-08-30T06:30:32;4.30;;;3.90;;
48871;SDS011;36154;51.674;7.824;2023-08-30T06:32:57;4.40;;;4.10;;
48871;SDS011;36154;51.674;7.824;2023-08-30T06:35:23;4.60;;;4.20;;
48871;SDS011;36154;51.674;7.824;2023-08-30T06:37:49;6.03;;;5.43;;
48871;SDS011;36154;51.674;7.824;2023-08-30T06:40:14;6.50;;;4.63;;
48871;SDS011;36154;51.674;7.824;2023-08-30T06:42:39;4.95;;;4.10;;
48871;SDS011;36154;51.674;7.824;2023-08-30T06:45:05;4.88;;;4.10;;
48871;SDS011;36154;51.674;7.824;2023-08-30T06:47:31;7.13;;;4.60;;
48871;SDS011;36154;51.674;7.824;2023-08-30T06:49:56;5.40;;;4.30;;
48871;SDS011;36154;51.674;7.824;2023-08-30T06:52:22;4.97;;;4.45;;
48871;SDS011;36154;51.674;7.824;2023-08-30T06:54:47;4.15;;;3.78;;
48871;SDS011;36154;51.674;7.824;2023-08-30T06:57:13;5.30;;;4.70;;
48871;SDS011;36154;51.674;7.824;2023-08-30T06:59:38;4.60;;;4.20;;
48871;SDS011;36154;51.674;7.824;2023-08-30T07:02:04;4.78;;;4.30;;
48871;SDS011;36154;51.674;7.824;2023-08-30T07:04:29;5.45;;;4.38;;
48871;SDS011;36154;51.674;7.824;2023-08-30T07:06:54;4.43;;;3.72;;
48871;SDS011;36154;51.674;7.824;2023-08-30T07:09:20;3.97;;;3.67;;
48871;SDS011;36154;51.674;7.824;2023-08-30T07:11:47;4.13;;;3.72;;
48871;SDS011;36154;51.674;7.824;2023-08-30T07:14:12;4.47;;;4.07;;
48871;SDS011;36154;51.674;7.824;2023-08-30T07:16:39;5.13;;;4.10;;
48871;SDS011;36154;51.674;7.824;2023-08-30T07:19:05;4.57;;;4.20;;
48871;SDS011;36154;51.674;7.824;2023-08-30T07:21:30;4.20;;;3.80;;
48871;SDS011;36154;51.674;7.824;2023-08-30T07:23:56;6.38;;;4.28;;
48871;SDS011;36154;51.674;7.824;2023-08-30T07:26:21;4.30;;;3.72;;
48871;SDS011;36154;51.674;7.824;2023-08-30T07:28:47;4.18;;;3.88;;
48871;SDS011;36154;51.674;7.824;2023-08-30T07:31:12;4.25;;;3.42;;
48871;SDS011;36154;51.674;7.824;2023-08-30T07:33:43;4.55;;;3.40;;
48871;SDS011;36154;51.674;7.824;2023-08-30T07:36:09;5.32;;;4.35;;
48871;SDS011;36154;51.674;7.824;2023-08-30T07:38:34;3.85;;;3.55;;
48871;SDS011;36154;51.674;7.824;2023-08-30T07:41:00;4.38;;;3.47;;
48871;SDS011;36154;51.674;7.824;2023-08-30T07:43:25;4.03;;;3.72;;
48871;SDS011;36154;51.674;7.824;2023-08-30T07:45:51;4.57;;;3.50;;
48871;SDS011;36154;51.674;7.824;2023-08-30T07:48:16;4.35;;;3.90;;
48871;SDS011;36154;51.674;7.824;2023-08-30T07:50:41;4.60;;;3.50;;
48871;SDS011;36154;51.674;7.824;2023-08-30T07:53:07;3.60;;;3.40;;
48871;SDS011;36154;51.674;7.824;2023-08-30T07:55:32;3.90;;;3.50;;
48871;SDS011;36154;51.674;7.824;2023-08-30T07:57:57;3.80;;;3.50;;
48871;SDS011;36154;51.674;7.824;2023-08-30T08:00:23;6.32;;;4.57;;
48871;SDS011;36154;51.674;7.824;2023-08-30T08:02:48;6.50;;;4.30;;
48871;SDS011;36154;51.674;7.824;2023-08-30T08:05:13;4.55;;;4.15;;
48871;SDS011;36154;51.674;7.824;2023-08-30T08:07:39;5.32;;;4.60;;
48871;SDS011;36154;51.674;7.824;2023-08-30T08:10:08;5.97;;;4.95;;
48871;SDS011;36154;51.674;7.824;2023-08-30T08:12:34;7.95;;;5.13;;
48871;SDS011;36154;51.674;7.824;2023-08-30T08:14:59;6.60;;;5.10;;
48871;SDS011;36154;51.674;7.824;2023-08-30T08:17:25;5.88;;;5.28;;
48871;SDS011;36154;51.674;7.824;2023-08-30T08:19:50;6.18;;;5.18;;
48871;SDS011;36154;51.674;7.824;2023-08-30T08:22:15;6.03;;;5.43;;
48871;SDS011;36154;51.674;7.824;2023-08-30T08:24:41;5.90;;;5.40;;
48871;SDS011;36154;51.674;7.824;2023-08-30T08:27:06;6.18;;;5.57;;
48871;SDS011;36154;51.674;7.824;2023-08-30T08:29:31;5.85;;;5.30;;
48871;SDS011;36154;51.674;7.824;2023-08-30T08:31:57;6.20;;;5.50;;
48871;SDS011;36154;51.674;7.824;2023-08-30T08:34:22;5.45;;;5.00;;
48871;SDS011;36154;51.674;7.824;2023-08-30T08:36:48;5.53;;;5.13;;
48871;SDS011;36154;51.674;7.824;2023-08-30T08:39:13;6.80;;;5.85;;
48871;SDS011;36154;51.674;7.824;2023-08-30T08:44:09;8.43;;;5.80;;
48871;SDS011;36154;51.674;7.824;2023-08-30T08:46:40;6.45;;;4.43;;
48871;SDS011;36154;51.674;7.824;2023-08-30T08:51:42;6.00;;;5.40;;
48871;SDS011;36154;51.674;7.824;2023-08-30T08:54:12;6.35;;;5.20;;
48871;SDS011;36154;51.674;7.824;2023-08-30T08:56:39;6.18;;;5.03;;
48871;SDS011;36154;51.674;7.824;2023-08-30T08:59:05;4.40;;;4.00;;
48871;SDS011;36154;51.674;7.824;2023-08-30T09:01:33;4.32;;;3.92;;
48871;SDS011;36154;51.674;7.824;2023-08-30T09:04:05;3.47;;;3.28;;
48871;SDS011;36154;51.674;7.824;2023-08-30T09:06:36;5.82;;;3.45;;
48871;SDS011;36154;51.674;7.824;2023-08-30T09:11:34;3.92;;;3.33;;
48871;SDS011;36154;51.674;7.824;2023-08-30T09:14:52;3.28;;;2.97;;
48871;SDS011;36154;51.674;7.824;2023-08-30T09:17:02;4.72;;;3.03;;
48871;SDS011;36154;51.674;7.824;2023-08-30T09:19:29;4.78;;;3.15;;
48871;SDS011;36154;51.674;7.824;2023-08-30T09:21:56;3.53;;;3.15;;
48871;SDS011;36154;51.674;7.824;2023-08-30T09:24:26;3.65;;;2.83;;
48871;SDS011;36154;51.674;7.824;2023-08-30T09:27:03;3.22;;;3.00;;
48871;SDS011;36154;51.674;7.824;2023-08-30T09:29:29;6.00;;;3.17;;
48871;SDS011;36154;51.674;7.824;2023-08-30T09:31:55;3.08;;;2.85;;
48871;SDS011;36154;51.674;7.824;2023-08-30T09:34:30;3.38;;;3.03;;
48871;SDS011;36154;51.674;7.824;2023-08-30T09:36:56;3.58;;;2.97;;
48871;SDS011;36154;51.674;7.824;2023-08-30T09:39:26;4.18;;;3.50;;
48871;SDS011;36154;51.674;7.824;2023-08-30T09:41:53;3.88;;;2.95;;
48871;SDS011;36154;51.674;7.824;2023-08-30T09:44:19;2.95;;;2.60;;
48871;SDS011;36154;51.674;7.824;2023-08-30T09:46:48;6.57;;;3.30;;
48871;SDS011;36154;51.674;7.824;2023-08-30T09:49:18;3.53;;;2.70;;
48871;SDS011;36154;51.674;7.824;2023-08-30T09:51:51;3.35;;;2.83;;
48871;SDS011;36154;51.674;7.824;2023-08-30T09:54:19;3.60;;;2.80;;
48871;SDS011;36154;51.674;7.824;2023-08-30T09:57:20;3.25;;;2.72;;
48871;SDS011;36154;51.674;7.824;2023-08-30T10:00:09;3.25;;;2.35;;
48871;SDS011;36154;51.674;7.824;2023-08-30T10:02:49;2.45;;;2.22;;
48871;SDS011;36154;51.674;7.824;2023-08-30T10:05:20;2.42;;;2.25;;
48871;SDS011;36154;51.674;7.824;2023-08-30T10:07:50;3.55;;;2.65;;
48871;SDS011;36154;51.674;7.824;2023-08-30T10:10:19;4.30;;;2.00;;
48871;SDS011;36154;51.674;7.824;2023-08-30T10:12:52;2.63;;;1.90;;
48871;SDS011;36154;51.674;7.824;2023-08-30T10:15:35;2.55;;;2.35;;
48871;SDS011;36154;51.674;7.824;2023-08-30T10:18:14;2.45;;;1.98;;
48871;SDS011;36154;51.674;7.824;2023-08-30T10:20:47;2.50;;;2.20;;
48871;SDS011;36154;51.674;7.824;2023-08-30T10:23:20;2.10;;;2.00;;
48871;SDS011;36154;51.674;7.824;2023-08-30T10:26:00;2.30;;;2.10;;
48871;SDS011;36154;51.674;7.824;2023-08-30T10:28:31;2.97;;;2.10;;
48871;SDS011;36154;51.674;7.824;2023-08-30T10:31:05;2.15;;;1.95;;
48871;SDS011;36154;51.674;7.824;2023-08-30T10:33:46;2.13;;;1.85;;
48871;SDS011;36154;51.674;7.824;2023-08-30T10:36:25;2.40;;;1.63;;
48871;SDS011;36154;51.674;7.824;2023-08-30T10:39:01;2.00;;;1.80;;
48871;SDS011;36154;51.674;7.824;2023-08-30T10:41:58;2.20;;;1.63;;
48871;SDS011;36154;51.674;7.824;2023-08-30T10:44:33;2.08;;;1.88;;
48871;SDS011;36154;51.674;7.824;2023-08-30T10:47:24;3.60;;;2.10;;
48871;SDS011;36154;51.674;7.824;2023-08-30T10:49:57;1.92;;;1.83;;
48871;SDS011;36154;51.674;7.824;2023-08-30T10:52:32;2.75;;;2.35;;
48871;SDS011;36154;51.674;7.824;2023-08-30T10:55:15;2.38;;;2.17;;
48871;SDS011;36154;51.674;7.824;2023-08-30T10:57:57;2.30;;;2.05;;
48871;SDS011;36154;51.674;7.824;2023-08-30T11:00:24;2.08;;;1.98;;
48871;SDS011;36154;51.674;7.824;2023-08-30T11:02:51;1.95;;;1.85;;
48871;SDS011;36154;51.674;7.824;2023-08-30T11:05:21;2.00;;;1.80;;
48871;SDS011;36154;51.674;7.824;2023-08-30T11:07:48;2.42;;;2.00;;
48871;SDS011;36154;51.674;7.824;2023-08-30T11:10:16;3.95;;;2.10;;
48871;SDS011;36154;51.674;7.824;2023-08-30T11:12:44;2.50;;;2.25;;
48871;SDS011;36154;51.674;7.824;2023-08-30T11:15:12;2.88;;;2.33;;
48871;SDS011;36154;51.674;7.824;2023-08-30T11:17:39;2.13;;;1.98;;
48871;SDS011;36154;51.674;7.824;2023-08-30T11:20:07;2.13;;;2.03;;
48871;SDS011;36154;51.674;7.824;2023-08-30T11:22:36;2.20;;;2.10;;
48871;SDS011;36154;51.674;7.824;2023-08-30T11:25:09;2.10;;;2.00;;
48871;SDS011;36154;51.674;7.824;2023-08-30T11:27:36;2.78;;;2.35;;
48871;SDS011;36154;51.674;7.824;2023-08-30T11:30:06;2.50;;;2.30;;
48871;SDS011;36154;51.674;7.824;2023-08-30T11:32:37;2.95;;;2.17;;
48871;SDS011;36154;51.674;7.824;2023-08-30T11:35:10;2.60;;;2.33;;
48871;SDS011;36154;51.674;7.824;2023-08-30T11:37:36;4.10;;;2.92;;
48871;SDS011;36154;51.674;7.824;2023-08-30T11:40:02;4.32;;;3.20;;
48871;SDS011;36154;51.674;7.824;2023-08-30T11:42:31;3.88;;;3.42;;
48871;SDS011;36154;51.674;7.824;2023-08-30T11:45:03;3.70;;;3.40;;
48871;SDS011;36154;51.674;7.824;2023-08-30T11:47:29;3.50;;;3.20;;
48871;SDS011;36154;51.674;7.824;2023-08-30T11:49:59;4.47;;;3.80;;
48871;SDS011;36154;51.674;7.824;2023-08-30T11:52:26;3.45;;;3.15;;
48871;SDS011;36154;51.674;7.824;2023-08-30T11:54:56;6.78;;;3.65;;
48871;SDS011;36154;51.674;7.824;2023-08-30T11:57:25;3.85;;;3.45;;
48871;SDS011;36154;51.674;7.824;2023-08-30T11:59:53;3.90;;;3.10;;
48871;SDS011;36154;51.674;7.824;2023-08-30T12:02:19;3.53;;;3.20;;
48871;SDS011;36154;51.674;7.824;2023-08-30T12:04:50;5.20;;;3.15;;
48871;SDS011;36154;51.674;7.824;2023-08-30T12:07:21;2.80;;;2.58;;
48871;SDS011;36154;51.674;7.824;2023-08-30T12:12:29;3.00;;;2.70;;
48871;SDS011;36154;51.674;7.824;2023-08-30T12:15:15;3.67;;;2.70;;
48871;SDS011;36154;51.674;7.824;2023-08-30T12:17:42;2.78;;;2.58;;
48871;SDS011;36154;51.674;7.824;2023-08-30T12:20:16;3.35;;;2.20;;
48871;SDS011;36154;51.674;7.824;2023-08-30T12:22:45;3.63;;;2.08;;
48871;SDS011;36154;51.674;7.824;2023-08-30T12:25:21;2.67;;;2.00;;
48871;SDS011;36154;51.674;7.824;2023-08-30T12:28:09;3.00;;;2.08;;
48871;SDS011;36154;51.674;7.824;2023-08-30T12:30:41;3.25;;;2.70;;
48871;SDS011;36154;51.674;7.824;2023-08-30T12:33:09;3.22;;;3.03;;
48871;SDS011;36154;51.674;7.824;2023-08-30T12:35:38;5.05;;;2.80;;
48871;SDS011;36154;51.674;7.824;2023-08-30T12:38:04;3.70;;;2.50;;
48871;SDS011;36154;51.674;7.824;2023-08-30T12:40:39;3.80;;;3.40;;
48871;SDS011;36154;51.674;7.824;2023-08-30T12:43:15;3.75;;;3.45;;
48871;SDS011;36154;51.674;7.824;2023-08-30T12:45:57;3.28;;;3.08;;
48871;SDS011;36154;51.674;7.824;2023-08-30T12:48:22;3.65;;;3.08;;
48871;SDS011;36154;51.674;7.824;2023-08-30T12:50:48;4.20;;;2.97;;
48871;SDS011;36154;51.674;7.824;2023-08-30T12:53:14;3.20;;;2.90;;
48871;SDS011;36154;51.674;7.824;2023-08-30T12:55:42;3.28;;;2.97;;
48871;SDS011;36154;51.674;7.824;2023-08-30T12:58:08;2.80;;;2.60;;
48871;SDS011;36154;51.674;7.824;2023-08-30T13:00:34;2.35;;;2.15;;
48871;SDS011;36154;51.674;7.824;2023-08-30T13:03:01;2.70;;;2.50;;
48871;SDS011;36154;51.674;7.824;2023-08-30T13:05:29;4.38;;;3.28;;
48871;SDS011;36154;51.674;7.824;2023-08-30T13:08:01;2.97;;;2.67;;
48871;SDS011;36154;51.674;7.824;2023-08-30T13:10:28;2.05;;;1.95;;
48871;SDS011;36154;51.674;7.824;2023-08-30T13:12:59;4.10;;;2.13;;
48871;SDS011;36154;51.674;7.824;2023-08-30T13:15:28;2.10;;;1.90;;
48871;SDS011;36154;51.674;7.824;2023-08-30T13:17:54;3.78;;;2.45;;
48871;SDS011;36154;51.674;7.824;2023-08-30T13:20:23;2.17;;;1.90;;
48871;SDS011;36154;51.674;7.824;2023-08-30T13:22:55;2.13;;;1.90;;
48871;SDS011;36154;51.674;7.824;2023-08-30T13:25:28;1.92;;;1.80;;
48871;SDS011;36154;51.674;7.824;2023-08-30T13:27:56;2.17;;;1.90;;
48871;SDS011;36154;51.674;7.824;2023-08-30T13:30:22;2.40;;;1.70;;
48871;SDS011;36154;51.674;7.824;2023-08-30T13:32:58;1.63;;;1.52;;
48871;SDS011;36154;51.674;7.824;2023-08-30T13:35:27;1.90;;;1.80;;
48871;SDS011;36154;51.674;7.824;2023-08-30T13:37:53;2.05;;;1.50;;
48871;SDS011;36154;51.674;7.824;2023-08-30T13:40:19;1.50;;;1.40;;
48871;SDS011;36154;51.674;7.824;2023-08-30T13:42:56;3.10;;;1.30;;
48871;SDS011;36154;51.674;7.824;2023-08-30T13:45:28;1.77;;;1.67;;
48871;SDS011;36154;51.674;7.824;2023-08-30T13:47:54;2.13;;;1.30;;
48871;SDS011;36154;51.674;7.824;2023-08-30T13:50:21;3.13;;;1.48;;
48871;SDS011;36154;51.674;7.824;2023-08-30T13:52:49;3.05;;;1.60;;
48871;SDS011;36154;51.674;7.824;2023-08-30T13:55:15;5.22;;;1.50;;
48871;SDS011;36154;51.674;7.824;2023-08-30T13:57:47;2.45;;;1.73;;
48871;SDS011;36154;51.674;7.824;2023-08-30T14:00:13;3.00;;;1.50;;
48871;SDS011;36154;51.674;7.824;2023-08-30T14:02:40;2.50;;;1.35;;
48871;SDS011;36154;51.674;7.824;2023-08-30T14:05:09;1.65;;;1.40;;
48871;SDS011;36154;51.674;7.824;2023-08-30T14:07:34;2.70;;;1.50;;
48871;SDS011;36154;51.674;7.824;2023-08-30T14:10:00;2.45;;;1.20;;
48871;SDS011;36154;51.674;7.824;2023-08-30T14:12:26;4.07;;;1.20;;
48871;SDS011;36154;51.674;7.824;2023-08-30T14:14:52;1.70;;;1.13;;
48871;SDS011;36154;51.674;7.824;2023-08-30T14:17:18;1.85;;;1.38;;
48871;SDS011;36154;51.674;7.824;2023-08-30T14:19:44;2.38;;;1.02;;
48871;SDS011;36154;51.674;7.824;2023-08-30T14:22:10;2.28;;;1.02;;
48871;SDS011;36154;51.674;7.824;2023-08-30T14:24:35;1.52;;;1.10;;
48871;SDS011;36154;51.674;7.824;2023-08-30T14:27:01;1.20;;;1.10;;
48871;SDS011;36154;51.674;7.824;2023-08-30T14:29:29;2.28;;;0.80;;
48871;SDS011;36154;51.674;7.824;2023-08-30T14:31:55;2.85;;;1.10;;
48871;SDS011;36154;51.674;7.824;2023-08-30T14:34:20;1.02;;;1.02;;
48871;SDS011;36154;51.674;7.824;2023-08-30T14:36:47;1.40;;;1.15;;
48871;SDS011;36154;51.674;7.824;2023-08-30T14:39:13;1.20;;;1.10;;
48871;SDS011;36154;51.674;7.824;2023-08-30T14:41:40;1.08;;;1.02;;
48871;SDS011;36154;51.674;7.824;2023-08-30T14:44:09;1.23;;;1.15;;
48871;SDS011;36154;51.674;7.824;2023-08-30T14:46:34;1.10;;;1.00;;
48871;SDS011;36154;51.674;7.824;2023-08-30T14:49:05;2.65;;;1.30;;
48871;SDS011;36154;51.674;7.824;2023-08-30T14:51:31;2.70;;;1.20;;
48871;SDS011;36154;51.674;7.824;2023-08-30T14:54:00;1.42;;;1.25;;
48871;SDS011;36154;51.674;7.824;2023-08-30T14:56:29;1.35;;;1.13;;
48871;SDS011;36154;51.674;7.824;2023-08-30T14:58:55;0.77;;;0.77;;
48871;SDS011;36154;51.674;7.824;2023-08-30T15:01:21;0.98;;;0.98;;
48871;SDS011;36154;51.674;7.824;2023-08-30T15:03:47;0.98;;;0.98;;
48871;SDS011;36154;51.674;7.824;2023-08-30T15:06:13;0.90;;;0.90;;
48871;SDS011;36154;51.674;7.824;2023-08-30T15:08:39;1.25;;;1.15;;